Rotterdam — V7OO5 — position and weather

sailwx.info

Track history (hours):
 
Tides and Currents Weather Stations Pressure Air Temp Water Temp Dewpoint Dewpoint Depression Visibility Wind Speed Wind Dir Waves Ship Positions

Rotterdam

Last reported at 2017-Oct-17 16:19 UTC. Time now 2017-Oct-17 16:36 UTC.
Position N 01°14' E 103°53'.

Length 293 m; draft 11.1 m.

Type: Ship. MMSI: 538006564.

Date/timePositionNaut miles runAvg speedWind from/ knotsBaromVisibWave heightAir tempDewpointWater temp
2017-Oct-17 16:19N 01°14' E 103°53'0 0.2
2017-Oct-17 15:55N 01°14' E 103°53'0 0.1
2017-Oct-17 15:13N 01°14' E 103°53'0 0.2
2017-Oct-17 14:52N 01°14' E 103°53'0 0.1
2017-Oct-17 14:25N 01°14' E 103°53'0 0.0
2017-Oct-17 13:55N 01°14' E 103°53'0 0.1
2017-Oct-17 13:25N 01°14' E 103°53'0 0.1
2017-Oct-17 12:55N 01°14' E 103°53'0 0.0
2017-Oct-17 12:25N 01°14' E 103°53'0 0.0
2017-Oct-17 11:56N 01°14' E 103°53'2 4.3
2017-Oct-17 11:30N 01°13' E 103°52'5 9.4
2017-Oct-17 11:00N 01°13' E 103°47'2 4.6
2017-Oct-17 10:30N 01°16' E 103°48'0 0.4
2017-Oct-17 10:00N 01°16' E 103°48'0 0.0
2017-Oct-17 09:31N 01°16' E 103°48'0 0.1
2017-Oct-17 08:59N 01°16' E 103°48'0 0.3
2017-Oct-17 08:27N 01°16' E 103°48'0 0.3
2017-Oct-17 07:53N 01°16' E 103°48'0 0.2
2017-Oct-17 07:29N 01°16' E 103°47'0 0.0
2017-Oct-17 06:59N 01°16' E 103°47'0 0.0
2017-Oct-17 06:29N 01°16' E 103°47'0 0.1
2017-Oct-17 05:59N 01°16' E 103°48'0 0.0
2017-Oct-17 05:26N 01°16' E 103°48'0 0.0
2017-Oct-17 04:59N 01°16' E 103°48'0 0.0
2017-Oct-17 04:26N 01°16' E 103°48'0 0.1
2017-Oct-17 03:59N 01°16' E 103°47'0 0.1
2017-Oct-17 03:29N 01°16' E 103°48'0 0.1
2017-Oct-17 02:59N 01°16' E 103°47'0 0.0
2017-Oct-17 02:26N 01°16' E 103°47'0 0.1
2017-Oct-17 01:59N 01°16' E 103°48'0 0.1
2017-Oct-17 01:29N 01°16' E 103°47'0 0.1
2017-Oct-17 00:59N 01°16' E 103°48'0 0.1
2017-Oct-17 00:29N 01°16' E 103°47'0 0.1
2017-Oct-17 00:01N 01°16' E 103°48'1 2.0
2017-Oct-16 23:31N 01°15' E 103°47'1 2.3
2017-Oct-16 23:00N 01°15' E 103°46'2 4.2
2017-Oct-16 22:30N 01°15' E 103°44'4 9.1
2017-Oct-16 22:01N 01°12' E 103°40'2 4.9
2017-Oct-16 21:31N 01°12' E 103°38'4 8.2
2017-Oct-16 21:00N 01°11' E 103°33'510.4
2017-Oct-16 20:30N 01°10' E 103°28'510.2
2017-Oct-16 20:00N 01°12' E 103°24'  
Track history (hours):
 
Tides and Currents Weather Stations Pressure Air Temp Water Temp Dewpoint Dewpoint Depression Visibility Wind Speed Wind Dir Waves Ship Positions

Rotterdam

Last reported at 2017-Oct-17 16:19 UTC. Time now 2017-Oct-17 16:36 UTC.
Position N 01°14' E 103°53'.

Length 293 m; draft 11.1 m.

Type: Ship. MMSI: 538006564.

Date/timePositionNaut miles runAvg speedWind from/ knotsBaromVisibWave heightAir tempDewpointWater temp
2017-Oct-17 16:19N 01°14' E 103°53'0 0.2
2017-Oct-17 15:55N 01°14' E 103°53'0 0.1
2017-Oct-17 15:13N 01°14' E 103°53'0 0.2
2017-Oct-17 14:52N 01°14' E 103°53'0 0.1
2017-Oct-17 14:25N 01°14' E 103°53'0 0.0
2017-Oct-17 13:55N 01°14' E 103°53'0 0.1
2017-Oct-17 13:25N 01°14' E 103°53'0 0.1
2017-Oct-17 12:55N 01°14' E 103°53'0 0.0
2017-Oct-17 12:25N 01°14' E 103°53'0 0.0
2017-Oct-17 11:56N 01°14' E 103°53'2 4.3
2017-Oct-17 11:30N 01°13' E 103°52'5 9.4
2017-Oct-17 11:00N 01°13' E 103°47'2 4.6
2017-Oct-17 10:30N 01°16' E 103°48'0 0.4
2017-Oct-17 10:00N 01°16' E 103°48'0 0.0
2017-Oct-17 09:31N 01°16' E 103°48'0 0.1
2017-Oct-17 08:59N 01°16' E 103°48'0 0.3
2017-Oct-17 08:27N 01°16' E 103°48'0 0.3
2017-Oct-17 07:53N 01°16' E 103°48'0 0.2
2017-Oct-17 07:29N 01°16' E 103°47'0 0.0
2017-Oct-17 06:59N 01°16' E 103°47'0 0.0
2017-Oct-17 06:29N 01°16' E 103°47'0 0.1
2017-Oct-17 05:59N 01°16' E 103°48'0 0.0
2017-Oct-17 05:26N 01°16' E 103°48'0 0.0
2017-Oct-17 04:59N 01°16' E 103°48'0 0.0
2017-Oct-17 04:26N 01°16' E 103°48'0 0.1
2017-Oct-17 03:59N 01°16' E 103°47'0 0.1
2017-Oct-17 03:29N 01°16' E 103°48'0 0.1
2017-Oct-17 02:59N 01°16' E 103°47'0 0.0
2017-Oct-17 02:26N 01°16' E 103°47'0 0.1
2017-Oct-17 01:59N 01°16' E 103°48'0 0.1
2017-Oct-17 01:29N 01°16' E 103°47'0 0.1
2017-Oct-17 00:59N 01°16' E 103°48'0 0.1
2017-Oct-17 00:29N 01°16' E 103°47'0 0.1
2017-Oct-17 00:01N 01°16' E 103°48'1 2.0
2017-Oct-16 23:31N 01°15' E 103°47'1 2.3
2017-Oct-16 23:00N 01°15' E 103°46'2 4.2
2017-Oct-16 22:30N 01°15' E 103°44'4 9.1
2017-Oct-16 22:01N 01°12' E 103°40'2 4.9
2017-Oct-16 21:31N 01°12' E 103°38'4 8.2
2017-Oct-16 21:00N 01°11' E 103°33'510.4
2017-Oct-16 20:30N 01°10' E 103°28'510.2
2017-Oct-16 20:00N 01°12' E 103°24'  

Dump ship's entire track history